sensor_id;sensor_type;location;lat;lon;timestamp;temperature;humidity
21108;DHT22;10712;52.944;9.098;2022-08-01T00:00:42;19.40;92.90
21108;DHT22;10712;52.944;9.098;2022-08-01T00:03:08;19.40;92.90
21108;DHT22;10712;52.944;9.098;2022-08-01T00:05:34;19.40;92.90
21108;DHT22;10712;52.944;9.098;2022-08-01T00:08:00;19.40;92.90
21108;DHT22;10712;52.944;9.098;2022-08-01T00:10:26;19.40;92.90
21108;DHT22;10712;52.944;9.098;2022-08-01T00:12:52;19.40;92.90
21108;DHT22;10712;52.944;9.098;2022-08-01T00:15:17;19.40;93.00
21108;DHT22;10712;52.944;9.098;2022-08-01T00:17:44;19.40;93.00
21108;DHT22;10712;52.944;9.098;2022-08-01T00:20:13;19.40;92.90
21108;DHT22;10712;52.944;9.098;2022-08-01T00:22:40;19.40;92.80
21108;DHT22;10712;52.944;9.098;2022-08-01T00:25:06;19.40;92.80
21108;DHT22;10712;52.944;9.098;2022-08-01T00:27:33;19.40;92.70
21108;DHT22;10712;52.944;9.098;2022-08-01T00:29:59;19.40;92.70
21108;DHT22;10712;52.944;9.098;2022-08-01T00:32:25;19.40;92.50
21108;DHT22;10712;52.944;9.098;2022-08-01T00:34:56;19.40;92.50
21108;DHT22;10712;52.944;9.098;2022-08-01T00:37:21;19.40;92.50
21108;DHT22;10712;52.944;9.098;2022-08-01T00:39:47;19.40;92.50
21108;DHT22;10712;52.944;9.098;2022-08-01T00:42:13;19.40;92.50
21108;DHT22;10712;52.944;9.098;2022-08-01T00:44:39;19.30;92.50
21108;DHT22;10712;52.944;9.098;2022-08-01T00:47:06;19.30;92.70
21108;DHT22;10712;52.944;9.098;2022-08-01T00:49:32;19.30;92.70
21108;DHT22;10712;52.944;9.098;2022-08-01T00:51:58;19.30;92.70
21108;DHT22;10712;52.944;9.098;2022-08-01T00:54:26;19.30;92.80
21108;DHT22;10712;52.944;9.098;2022-08-01T00:56:53;19.30;92.80
21108;DHT22;10712;52.944;9.098;2022-08-01T00:59:21;19.30;92.70
21108;DHT22;10712;52.944;9.098;2022-08-01T01:01:49;19.30;92.80
21108;DHT22;10712;52.944;9.098;2022-08-01T01:04:16;19.30;92.80
21108;DHT22;10712;52.944;9.098;2022-08-01T01:06:57;19.30;92.70
21108;DHT22;10712;52.944;9.098;2022-08-01T01:12:29;19.30;92.50
21108;DHT22;10712;52.944;9.098;2022-08-01T01:15:21;19.30;92.50
21108;DHT22;10712;52.944;9.098;2022-08-01T01:18:09;19.30;92.50
21108;DHT22;10712;52.944;9.098;2022-08-01T01:20:43;19.30;92.50
21108;DHT22;10712;52.944;9.098;2022-08-01T01:23:40;19.30;92.50
21108;DHT22;10712;52.944;9.098;2022-08-01T01:29:40;19.20;92.40
21108;DHT22;10712;52.944;9.098;2022-08-01T01:32:24;19.20;92.50
21108;DHT22;10712;52.944;9.098;2022-08-01T01:35:11;19.20;92.60
21108;DHT22;10712;52.944;9.098;2022-08-01T01:37:58;19.20;92.60
21108;DHT22;10712;52.944;9.098;2022-08-01T01:40:30;19.20;92.40
21108;DHT22;10712;52.944;9.098;2022-08-01T01:42:57;19.20;92.30
21108;DHT22;10712;52.944;9.098;2022-08-01T01:45:25;19.20;92.30
21108;DHT22;10712;52.944;9.098;2022-08-01T01:47:52;19.10;92.40
21108;DHT22;10712;52.944;9.098;2022-08-01T01:50:21;19.10;92.50
21108;DHT22;10712;52.944;9.098;2022-08-01T01:52:50;19.10;92.60
21108;DHT22;10712;52.944;9.098;2022-08-01T01:55:19;19.10;92.70
21108;DHT22;10712;52.944;9.098;2022-08-01T01:57:47;19.10;92.70
21108;DHT22;10712;52.944;9.098;2022-08-01T02:00:15;19.10;92.60
21108;DHT22;10712;52.944;9.098;2022-08-01T02:02:41;19.10;92.50
21108;DHT22;10712;52.944;9.098;2022-08-01T02:05:11;19.10;92.50
21108;DHT22;10712;52.944;9.098;2022-08-01T02:07:38;19.10;92.50
21108;DHT22;10712;52.944;9.098;2022-08-01T02:10:07;19.10;92.40
21108;DHT22;10712;52.944;9.098;2022-08-01T02:12:38;19.10;92.30
21108;DHT22;10712;52.944;9.098;2022-08-01T02:15:07;19.10;92.30
21108;DHT22;10712;52.944;9.098;2022-08-01T02:17:39;19.10;92.20
21108;DHT22;10712;52.944;9.098;2022-08-01T02:20:09;19.00;92.30
21108;DHT22;10712;52.944;9.098;2022-08-01T02:22:50;19.00;92.20
21108;DHT22;10712;52.944;9.098;2022-08-01T02:25:29;19.00;92.10
21108;DHT22;10712;52.944;9.098;2022-08-01T02:28:03;19.00;92.10
21108;DHT22;10712;52.944;9.098;2022-08-01T02:30:34;19.00;92.20
21108;DHT22;10712;52.944;9.098;2022-08-01T02:33:27;19.00;92.30
21108;DHT22;10712;52.944;9.098;2022-08-01T02:35:59;19.00;92.20
21108;DHT22;10712;52.944;9.098;2022-08-01T02:38:28;19.00;92.30
21108;DHT22;10712;52.944;9.098;2022-08-01T02:40:59;19.00;92.30
21108;DHT22;10712;52.944;9.098;2022-08-01T02:43:32;18.90;92.20
21108;DHT22;10712;52.944;9.098;2022-08-01T02:46:02;18.90;92.30
21108;DHT22;10712;52.944;9.098;2022-08-01T02:48:33;18.90;92.30
21108;DHT22;10712;52.944;9.098;2022-08-01T02:51:02;18.90;92.40
21108;DHT22;10712;52.944;9.098;2022-08-01T02:53:32;18.90;92.50
21108;DHT22;10712;52.944;9.098;2022-08-01T02:56:05;18.90;92.40
21108;DHT22;10712;52.944;9.098;2022-08-01T02:58:35;18.90;92.60
21108;DHT22;10712;52.944;9.098;2022-08-01T03:01:05;18.90;92.70
21108;DHT22;10712;52.944;9.098;2022-08-01T03:03:33;18.90;92.70
21108;DHT22;10712;52.944;9.098;2022-08-01T03:06:00;18.90;92.60
21108;DHT22;10712;52.944;9.098;2022-08-01T03:08:29;18.80;92.60
21108;DHT22;10712;52.944;9.098;2022-08-01T03:10:57;18.80;92.60
21108;DHT22;10712;52.944;9.098;2022-08-01T03:13:26;18.80;92.60
21108;DHT22;10712;52.944;9.098;2022-08-01T03:15:56;18.80;92.50
21108;DHT22;10712;52.944;9.098;2022-08-01T03:18:25;18.80;92.60
21108;DHT22;10712;52.944;9.098;2022-08-01T03:20:53;18.80;92.70
21108;DHT22;10712;52.944;9.098;2022-08-01T03:23:21;18.80;92.70
21108;DHT22;10712;52.944;9.098;2022-08-01T03:25:49;18.80;92.70
21108;DHT22;10712;52.944;9.098;2022-08-01T03:28:17;18.70;92.70
21108;DHT22;10712;52.944;9.098;2022-08-01T03:30:47;18.70;92.70
21108;DHT22;10712;52.944;9.098;2022-08-01T03:33:15;18.70;92.70
21108;DHT22;10712;52.944;9.098;2022-08-01T03:35:49;18.70;92.60
21108;DHT22;10712;52.944;9.098;2022-08-01T03:38:22;18.70;92.60
21108;DHT22;10712;52.944;9.098;2022-08-01T03:41:04;18.70;92.40
21108;DHT22;10712;52.944;9.098;2022-08-01T03:43:40;18.70;92.40
21108;DHT22;10712;52.944;9.098;2022-08-01T03:46:19;18.60;92.30
21108;DHT22;10712;52.944;9.098;2022-08-01T03:48:48;18.60;92.30
21108;DHT22;10712;52.944;9.098;2022-08-01T03:51:21;18.60;92.30
21108;DHT22;10712;52.944;9.098;2022-08-01T03:53:49;18.50;92.40
21108;DHT22;10712;52.944;9.098;2022-08-01T03:56:21;18.50;92.40
21108;DHT22;10712;52.944;9.098;2022-08-01T03:58:50;18.50;92.40
21108;DHT22;10712;52.944;9.098;2022-08-01T04:01:17;18.50;92.50
21108;DHT22;10712;52.944;9.098;2022-08-01T04:03:44;18.50;92.40
21108;DHT22;10712;52.944;9.098;2022-08-01T04:06:10;18.50;92.40
21108;DHT22;10712;52.944;9.098;2022-08-01T04:08:39;18.50;92.40
21108;DHT22;10712;52.944;9.098;2022-08-01T04:11:08;18.50;92.60
21108;DHT22;10712;52.944;9.098;2022-08-01T04:13:35;18.50;92.50
21108;DHT22;10712;52.944;9.098;2022-08-01T04:16:01;18.50;92.50
21108;DHT22;10712;52.944;9.098;2022-08-01T04:18:27;18.50;92.60
21108;DHT22;10712;52.944;9.098;2022-08-01T04:20:52;18.50;92.60
21108;DHT22;10712;52.944;9.098;2022-08-01T04:23:22;18.50;92.50
21108;DHT22;10712;52.944;9.098;2022-08-01T04:25:52;18.50;92.60
21108;DHT22;10712;52.944;9.098;2022-08-01T04:28:22;18.50;92.60
21108;DHT22;10712;52.944;9.098;2022-08-01T04:30:53;18.50;92.60
21108;DHT22;10712;52.944;9.098;2022-08-01T04:33:21;18.50;92.60
21108;DHT22;10712;52.944;9.098;2022-08-01T04:35:49;18.50;92.60
21108;DHT22;10712;52.944;9.098;2022-08-01T04:38:20;18.50;92.60
21108;DHT22;10712;52.944;9.098;2022-08-01T04:40:49;18.50;92.60
21108;DHT22;10712;52.944;9.098;2022-08-01T04:43:17;18.50;92.70
21108;DHT22;10712;52.944;9.098;2022-08-01T04:45:45;18.50;92.70
21108;DHT22;10712;52.944;9.098;2022-08-01T04:48:13;18.50;92.70
21108;DHT22;10712;52.944;9.098;2022-08-01T04:50:42;18.50;92.60
21108;DHT22;10712;52.944;9.098;2022-08-01T04:53:15;18.50;92.60
21108;DHT22;10712;52.944;9.098;2022-08-01T04:55:43;18.50;92.60
21108;DHT22;10712;52.944;9.098;2022-08-01T04:58:11;18.50;92.60
21108;DHT22;10712;52.944;9.098;2022-08-01T05:00:38;18.50;92.60
21108;DHT22;10712;52.944;9.098;2022-08-01T05:03:04;18.50;92.50
21108;DHT22;10712;52.944;9.098;2022-08-01T05:05:30;18.50;92.50
21108;DHT22;10712;52.944;9.098;2022-08-01T05:07:57;18.50;92.50
21108;DHT22;10712;52.944;9.098;2022-08-01T05:10:23;18.50;92.60
21108;DHT22;10712;52.944;9.098;2022-08-01T05:12:49;18.50;92.60
21108;DHT22;10712;52.944;9.098;2022-08-01T05:15:16;18.50;92.70
21108;DHT22;10712;52.944;9.098;2022-08-01T05:17:41;18.50;92.70
21108;DHT22;10712;52.944;9.098;2022-08-01T05:20:08;18.50;92.70
21108;DHT22;10712;52.944;9.098;2022-08-01T05:22:34;18.60;92.80
21108;DHT22;10712;52.944;9.098;2022-08-01T05:25:00;18.60;92.70
21108;DHT22;10712;52.944;9.098;2022-08-01T05:27:26;18.60;92.70
21108;DHT22;10712;52.944;9.098;2022-08-01T05:29:52;18.50;92.50
21108;DHT22;10712;52.944;9.098;2022-08-01T05:35:05;18.50;92.70
21108;DHT22;10712;52.944;9.098;2022-08-01T05:37:31;18.50;92.60
21108;DHT22;10712;52.944;9.098;2022-08-01T05:39:57;18.50;92.70
21108;DHT22;10712;52.944;9.098;2022-08-01T05:42:23;18.50;92.60
21108;DHT22;10712;52.944;9.098;2022-08-01T05:44:48;18.50;92.60
21108;DHT22;10712;52.944;9.098;2022-08-01T05:47:16;18.50;92.60
21108;DHT22;10712;52.944;9.098;2022-08-01T05:49:43;18.50;92.60
21108;DHT22;10712;52.944;9.098;2022-08-01T05:52:09;18.50;92.50
21108;DHT22;10712;52.944;9.098;2022-08-01T05:54:35;18.50;92.50
21108;DHT22;10712;52.944;9.098;2022-08-01T05:57:01;18.50;92.50
21108;DHT22;10712;52.944;9.098;2022-08-01T05:59:30;18.50;92.50
21108;DHT22;10712;52.944;9.098;2022-08-01T06:01:56;18.50;92.50
21108;DHT22;10712;52.944;9.098;2022-08-01T06:04:22;18.50;92.50
21108;DHT22;10712;52.944;9.098;2022-08-01T06:06:48;18.40;92.30
21108;DHT22;10712;52.944;9.098;2022-08-01T06:09:14;18.40;92.20
21108;DHT22;10712;52.944;9.098;2022-08-01T06:11:40;18.40;92.20
21108;DHT22;10712;52.944;9.098;2022-08-01T06:14:06;18.40;92.00
21108;DHT22;10712;52.944;9.098;2022-08-01T06:16:32;18.30;91.90
21108;DHT22;10712;52.944;9.098;2022-08-01T06:18:58;18.30;92.00
21108;DHT22;10712;52.944;9.098;2022-08-01T06:21:24;18.30;92.20
21108;DHT22;10712;52.944;9.098;2022-08-01T06:23:50;18.30;92.30
21108;DHT22;10712;52.944;9.098;2022-08-01T06:26:19;18.30;92.30
21108;DHT22;10712;52.944;9.098;2022-08-01T06:28:45;18.30;92.20
21108;DHT22;10712;52.944;9.098;2022-08-01T06:31:11;18.30;92.30
21108;DHT22;10712;52.944;9.098;2022-08-01T06:33:39;18.20;92.20
21108;DHT22;10712;52.944;9.098;2022-08-01T06:36:05;18.20;92.20
21108;DHT22;10712;52.944;9.098;2022-08-01T06:38:31;18.20;92.30
21108;DHT22;10712;52.944;9.098;2022-08-01T06:40:57;18.20;92.10
21108;DHT22;10712;52.944;9.098;2022-08-01T06:43:22;18.20;92.20
21108;DHT22;10712;52.944;9.098;2022-08-01T06:45:48;18.20;92.00
21108;DHT22;10712;52.944;9.098;2022-08-01T06:48:15;18.20;92.10
21108;DHT22;10712;52.944;9.098;2022-08-01T06:50:41;18.20;92.10
21108;DHT22;10712;52.944;9.098;2022-08-01T06:53:06;18.20;91.90
21108;DHT22;10712;52.944;9.098;2022-08-01T06:55:32;18.20;91.90
21108;DHT22;10712;52.944;9.098;2022-08-01T06:57:58;18.20;91.90
21108;DHT22;10712;52.944;9.098;2022-08-01T07:00:25;18.20;92.00
21108;DHT22;10712;52.944;9.098;2022-08-01T07:02:55;18.20;91.90
21108;DHT22;10712;52.944;9.098;2022-08-01T07:05:22;18.20;91.90
21108;DHT22;10712;52.944;9.098;2022-08-01T07:07:48;18.20;91.50
21108;DHT22;10712;52.944;9.098;2022-08-01T07:10:15;18.20;91.40
21108;DHT22;10712;52.944;9.098;2022-08-01T07:12:41;18.10;91.00
21108;DHT22;10712;52.944;9.098;2022-08-01T07:15:09;18.10;90.80
21108;DHT22;10712;52.944;9.098;2022-08-01T07:17:42;18.10;90.90
21108;DHT22;10712;52.944;9.098;2022-08-01T07:20:10;18.10;90.40
21108;DHT22;10712;52.944;9.098;2022-08-01T07:22:37;18.00;90.50
21108;DHT22;10712;52.944;9.098;2022-08-01T07:25:05;18.00;90.50
21108;DHT22;10712;52.944;9.098;2022-08-01T07:27:31;18.00;90.50
21108;DHT22;10712;52.944;9.098;2022-08-01T07:29:57;18.00;90.40
21108;DHT22;10712;52.944;9.098;2022-08-01T07:32:31;18.00;90.30
21108;DHT22;10712;52.944;9.098;2022-08-01T07:34:57;18.00;89.60
21108;DHT22;10712;52.944;9.098;2022-08-01T07:37:23;17.90;89.30
21108;DHT22;10712;52.944;9.098;2022-08-01T07:39:49;17.90;89.60
21108;DHT22;10712;52.944;9.098;2022-08-01T07:42:15;17.80;89.40
21108;DHT22;10712;52.944;9.098;2022-08-01T07:44:41;17.80;89.20
21108;DHT22;10712;52.944;9.098;2022-08-01T07:47:07;17.80;89.20
21108;DHT22;10712;52.944;9.098;2022-08-01T07:49:33;17.70;88.90
21108;DHT22;10712;52.944;9.098;2022-08-01T07:51:59;17.70;89.00
21108;DHT22;10712;52.944;9.098;2022-08-01T07:54:25;17.60;89.10
21108;DHT22;10712;52.944;9.098;2022-08-01T07:56:53;17.60;88.80
21108;DHT22;10712;52.944;9.098;2022-08-01T07:59:20;17.50;88.70
21108;DHT22;10712;52.944;9.098;2022-08-01T08:01:51;17.50;89.00
21108;DHT22;10712;52.944;9.098;2022-08-01T08:04:17;17.50;89.20
21108;DHT22;10712;52.944;9.098;2022-08-01T08:06:44;17.50;89.30
21108;DHT22;10712;52.944;9.098;2022-08-01T08:09:13;17.50;89.30
21108;DHT22;10712;52.944;9.098;2022-08-01T08:11:39;17.50;89.30
21108;DHT22;10712;52.944;9.098;2022-08-01T08:14:07;17.50;89.60
21108;DHT22;10712;52.944;9.098;2022-08-01T08:16:33;17.50;88.90
21108;DHT22;10712;52.944;9.098;2022-08-01T08:18:59;17.50;88.90
21108;DHT22;10712;52.944;9.098;2022-08-01T08:21:24;17.50;89.00
21108;DHT22;10712;52.944;9.098;2022-08-01T08:23:50;17.50;89.30
21108;DHT22;10712;52.944;9.098;2022-08-01T08:26:34;17.50;89.40
21108;DHT22;10712;52.944;9.098;2022-08-01T08:29:00;17.50;89.00
21108;DHT22;10712;52.944;9.098;2022-08-01T08:31:26;17.50;88.80
21108;DHT22;10712;52.944;9.098;2022-08-01T08:33:52;17.50;88.30
21108;DHT22;10712;52.944;9.098;2022-08-01T08:36:18;17.50;88.40
21108;DHT22;10712;52.944;9.098;2022-08-01T08:38:44;17.50;88.60
21108;DHT22;10712;52.944;9.098;2022-08-01T08:41:09;17.60;88.70
21108;DHT22;10712;52.944;9.098;2022-08-01T08:43:35;17.60;88.70
21108;DHT22;10712;52.944;9.098;2022-08-01T08:46:03;17.70;88.80
21108;DHT22;10712;52.944;9.098;2022-08-01T08:48:34;17.70;88.60
21108;DHT22;10712;52.944;9.098;2022-08-01T08:51:02;17.70;88.50
21108;DHT22;10712;52.944;9.098;2022-08-01T08:53:30;17.70;88.50
21108;DHT22;10712;52.944;9.098;2022-08-01T08:55:59;17.70;87.30
21108;DHT22;10712;52.944;9.098;2022-08-01T08:58:26;17.70;87.40
21108;DHT22;10712;52.944;9.098;2022-08-01T09:00:54;17.80;87.30
21108;DHT22;10712;52.944;9.098;2022-08-01T09:03:20;17.80;87.40
21108;DHT22;10712;52.944;9.098;2022-08-01T09:05:46;17.80;87.50
21108;DHT22;10712;52.944;9.098;2022-08-01T09:08:12;17.90;87.70
21108;DHT22;10712;52.944;9.098;2022-08-01T09:10:37;18.10;88.10
21108;DHT22;10712;52.944;9.098;2022-08-01T09:18:43;18.30;86.80
21108;DHT22;10712;52.944;9.098;2022-08-01T09:21:16;18.40;86.70
21108;DHT22;10712;52.944;9.098;2022-08-01T09:23:54;18.40;86.40
21108;DHT22;10712;52.944;9.098;2022-08-01T09:26:32;18.40;84.70
21108;DHT22;10712;52.944;9.098;2022-08-01T09:29:04;18.40;85.00
21108;DHT22;10712;52.944;9.098;2022-08-01T09:31:40;18.50;83.60
21108;DHT22;10712;52.944;9.098;2022-08-01T09:34:07;18.50;83.30
21108;DHT22;10712;52.944;9.098;2022-08-01T09:36:54;18.60;83.10
21108;DHT22;10712;52.944;9.098;2022-08-01T09:39:34;18.70;83.50
21108;DHT22;10712;52.944;9.098;2022-08-01T09:42:22;18.80;82.20
21108;DHT22;10712;52.944;9.098;2022-08-01T09:44:50;18.90;82.10
21108;DHT22;10712;52.944;9.098;2022-08-01T09:47:18;19.00;80.90
21108;DHT22;10712;52.944;9.098;2022-08-01T09:49:53;19.00;79.70
21108;DHT22;10712;52.944;9.098;2022-08-01T09:52:23;19.10;79.10
21108;DHT22;10712;52.944;9.098;2022-08-01T09:54:57;19.20;79.20
21108;DHT22;10712;52.944;9.098;2022-08-01T09:57:26;19.30;79.90
21108;DHT22;10712;52.944;9.098;2022-08-01T09:59:57;19.40;80.20
21108;DHT22;10712;52.944;9.098;2022-08-01T10:05:05;19.50;80.10
21108;DHT22;10712;52.944;9.098;2022-08-01T10:07:32;19.50;80.10
21108;DHT22;10712;52.944;9.098;2022-08-01T10:10:12;19.60;80.30
21108;DHT22;10712;52.944;9.098;2022-08-01T10:12:43;19.70;80.10
21108;DHT22;10712;52.944;9.098;2022-08-01T10:15:11;19.70;79.30
21108;DHT22;10712;52.944;9.098;2022-08-01T10:17:59;19.70;78.90
21108;DHT22;10712;52.944;9.098;2022-08-01T10:20:32;19.70;78.10
21108;DHT22;10712;52.944;9.098;2022-08-01T10:23:01;19.80;78.20
21108;DHT22;10712;52.944;9.098;2022-08-01T10:25:34;19.90;77.70
21108;DHT22;10712;52.944;9.098;2022-08-01T10:28:10;19.90;77.60
21108;DHT22;10712;52.944;9.098;2022-08-01T10:30:44;19.90;77.70
21108;DHT22;10712;52.944;9.098;2022-08-01T10:33:12;20.00;77.60
21108;DHT22;10712;52.944;9.098;2022-08-01T10:35:42;20.10;77.10
21108;DHT22;10712;52.944;9.098;2022-08-01T10:38:11;20.20;75.30
21108;DHT22;10712;52.944;9.098;2022-08-01T10:40:37;20.20;74.80
21108;DHT22;10712;52.944;9.098;2022-08-01T10:43:05;20.20;72.50
21108;DHT22;10712;52.944;9.098;2022-08-01T10:45:32;20.20;72.70
21108;DHT22;10712;52.944;9.098;2022-08-01T10:50:49;20.30;70.90
21108;DHT22;10712;52.944;9.098;2022-08-01T10:53:20;20.20;69.20
21108;DHT22;10712;52.944;9.098;2022-08-01T10:58:36;20.20;71.50
21108;DHT22;10712;52.944;9.098;2022-08-01T11:14:27;20.40;70.90
21108;DHT22;10712;52.944;9.098;2022-08-01T11:16:54;20.40;70.60
21108;DHT22;10712;52.944;9.098;2022-08-01T11:19:21;20.50;71.00
21108;DHT22;10712;52.944;9.098;2022-08-01T11:27:30;20.60;69.80
21108;DHT22;10712;52.944;9.098;2022-08-01T11:32:48;20.90;70.60
21108;DHT22;10712;52.944;9.098;2022-08-01T11:35:16;21.00;68.30
21108;DHT22;10712;52.944;9.098;2022-08-01T11:37:43;21.10;68.90
21108;DHT22;10712;52.944;9.098;2022-08-01T11:45:54;21.00;67.70
21108;DHT22;10712;52.944;9.098;2022-08-01T11:48:22;21.00;68.70
21108;DHT22;10712;52.944;9.098;2022-08-01T11:50:53;21.00;69.70
21108;DHT22;10712;52.944;9.098;2022-08-01T11:53:20;21.10;69.40
21108;DHT22;10712;52.944;9.098;2022-08-01T11:55:49;21.20;67.80
21108;DHT22;10712;52.944;9.098;2022-08-01T11:58:22;21.20;68.20
21108;DHT22;10712;52.944;9.098;2022-08-01T12:00:53;21.20;67.70
21108;DHT22;10712;52.944;9.098;2022-08-01T12:03:30;21.10;68.20
21108;DHT22;10712;52.944;9.098;2022-08-01T12:05:58;21.10;69.30
21108;DHT22;10712;52.944;9.098;2022-08-01T12:08:28;21.20;69.10
21108;DHT22;10712;52.944;9.098;2022-08-01T12:11:03;21.20;66.00
21108;DHT22;10712;52.944;9.098;2022-08-01T12:13:42;21.20;66.50
21108;DHT22;10712;52.944;9.098;2022-08-01T12:16:11;21.30;66.90
21108;DHT22;10712;52.944;9.098;2022-08-01T12:18:41;21.30;67.10
21108;DHT22;10712;52.944;9.098;2022-08-01T12:21:08;21.40;67.30
21108;DHT22;10712;52.944;9.098;2022-08-01T12:23:34;21.40;66.40
21108;DHT22;10712;52.944;9.098;2022-08-01T12:26:00;21.40;66.40
21108;DHT22;10712;52.944;9.098;2022-08-01T12:28:26;21.40;67.30
21108;DHT22;10712;52.944;9.098;2022-08-01T12:30:52;21.40;64.80
21108;DHT22;10712;52.944;9.098;2022-08-01T12:33:19;21.30;64.60
21108;DHT22;10712;52.944;9.098;2022-08-01T12:35:46;21.20;65.30
21108;DHT22;10712;52.944;9.098;2022-08-01T12:38:20;21.10;65.80
21108;DHT22;10712;52.944;9.098;2022-08-01T12:40:52;21.00;66.50
21108;DHT22;10712;52.944;9.098;2022-08-01T12:43:20;21.00;66.30
21108;DHT22;10712;52.944;9.098;2022-08-01T12:45:49;21.00;66.40
21108;DHT22;10712;52.944;9.098;2022-08-01T12:48:17;21.00;66.10
21108;DHT22;10712;52.944;9.098;2022-08-01T12:50:46;21.00;66.10
21108;DHT22;10712;52.944;9.098;2022-08-01T12:53:14;21.00;66.50
21108;DHT22;10712;52.944;9.098;2022-08-01T12:58:14;21.00;67.20
21108;DHT22;10712;52.944;9.098;2022-08-01T13:00:45;21.00;66.50
21108;DHT22;10712;52.944;9.098;2022-08-01T13:03:13;21.10;67.10
21108;DHT22;10712;52.944;9.098;2022-08-01T13:06:01;21.10;66.50
21108;DHT22;10712;52.944;9.098;2022-08-01T13:08:34;21.10;66.10
21108;DHT22;10712;52.944;9.098;2022-08-01T13:16:12;21.20;65.60
21108;DHT22;10712;52.944;9.098;2022-08-01T13:18:38;21.30;65.30
21108;DHT22;10712;52.944;9.098;2022-08-01T13:21:24;21.20;65.70
21108;DHT22;10712;52.944;9.098;2022-08-01T13:24:04;21.30;65.70
21108;DHT22;10712;52.944;9.098;2022-08-01T13:29:09;21.30;66.00
21108;DHT22;10712;52.944;9.098;2022-08-01T13:31:37;21.30;65.30
21108;DHT22;10712;52.944;9.098;2022-08-01T13:34:04;21.30;65.70
21108;DHT22;10712;52.944;9.098;2022-08-01T13:36:31;21.30;66.10
21108;DHT22;10712;52.944;9.098;2022-08-01T13:38:58;21.30;65.80
21108;DHT22;10712;52.944;9.098;2022-08-01T13:41:43;21.30;65.50
21108;DHT22;10712;52.944;9.098;2022-08-01T13:44:09;21.30;65.30
21108;DHT22;10712;52.944;9.098;2022-08-01T13:46:39;21.30;64.80
21108;DHT22;10712;52.944;9.098;2022-08-01T13:49:07;21.20;64.70
21108;DHT22;10712;52.944;9.098;2022-08-01T13:51:35;21.20;65.20
21108;DHT22;10712;52.944;9.098;2022-08-01T13:54:02;21.30;65.10
21108;DHT22;10712;52.944;9.098;2022-08-01T13:56:29;21.30;64.50
21108;DHT22;10712;52.944;9.098;2022-08-01T13:58:56;21.30;63.40
21108;DHT22;10712;52.944;9.098;2022-08-01T14:01:22;21.20;64.30
21108;DHT22;10712;52.944;9.098;2022-08-01T14:03:49;21.20;63.70
21108;DHT22;10712;52.944;9.098;2022-08-01T14:06:17;21.10;64.80
21108;DHT22;10712;52.944;9.098;2022-08-01T14:08:44;21.20;65.30
21108;DHT22;10712;52.944;9.098;2022-08-01T14:11:10;21.20;64.00
21108;DHT22;10712;52.944;9.098;2022-08-01T14:13:36;21.20;64.00
21108;DHT22;10712;52.944;9.098;2022-08-01T14:16:05;21.10;64.70
21108;DHT22;10712;52.944;9.098;2022-08-01T14:18:31;21.10;65.00
21108;DHT22;10712;52.944;9.098;2022-08-01T14:20:58;21.10;64.90
21108;DHT22;10712;52.944;9.098;2022-08-01T14:23:24;21.10;64.90
21108;DHT22;10712;52.944;9.098;2022-08-01T14:25:49;21.00;63.60
21108;DHT22;10712;52.944;9.098;2022-08-01T14:28:16;21.00;64.40
21108;DHT22;10712;52.944;9.098;2022-08-01T14:30:42;21.00;65.20
21108;DHT22;10712;52.944;9.098;2022-08-01T14:33:11;21.00;65.20
21108;DHT22;10712;52.944;9.098;2022-08-01T14:35:38;21.10;64.90
21108;DHT22;10712;52.944;9.098;2022-08-01T14:38:05;21.10;63.70
21108;DHT22;10712;52.944;9.098;2022-08-01T14:40:30;21.00;64.50
21108;DHT22;10712;52.944;9.098;2022-08-01T14:42:56;21.00;64.70
21108;DHT22;10712;52.944;9.098;2022-08-01T14:45:22;20.90;65.30
21108;DHT22;10712;52.944;9.098;2022-08-01T14:47:48;20.90;65.10
21108;DHT22;10712;52.944;9.098;2022-08-01T14:50:15;21.00;65.20
21108;DHT22;10712;52.944;9.098;2022-08-01T14:52:42;21.00;65.40
21108;DHT22;10712;52.944;9.098;2022-08-01T14:55:10;21.00;63.90
21108;DHT22;10712;52.944;9.098;2022-08-01T14:57:38;20.90;64.40
21108;DHT22;10712;52.944;9.098;2022-08-01T15:00:06;20.90;64.70
21108;DHT22;10712;52.944;9.098;2022-08-01T15:02:40;20.80;64.80
21108;DHT22;10712;52.944;9.098;2022-08-01T15:05:07;20.70;64.50
21108;DHT22;10712;52.944;9.098;2022-08-01T15:07:34;20.70;65.10
21108;DHT22;10712;52.944;9.098;2022-08-01T15:10:01;20.60;64.30
21108;DHT22;10712;52.944;9.098;2022-08-01T15:12:28;20.50;64.70
21108;DHT22;10712;52.944;9.098;2022-08-01T15:14:54;20.50;65.40
21108;DHT22;10712;52.944;9.098;2022-08-01T15:17:21;20.60;66.00
21108;DHT22;10712;52.944;9.098;2022-08-01T15:19:51;20.60;65.70
21108;DHT22;10712;52.944;9.098;2022-08-01T15:22:19;20.60;65.60
21108;DHT22;10712;52.944;9.098;2022-08-01T15:24:51;20.60;64.80
21108;DHT22;10712;52.944;9.098;2022-08-01T15:27:18;20.60;65.00
21108;DHT22;10712;52.944;9.098;2022-08-01T15:29:44;20.60;65.50
21108;DHT22;10712;52.944;9.098;2022-08-01T15:32:11;20.50;65.40
21108;DHT22;10712;52.944;9.098;2022-08-01T15:34:47;20.60;65.60
21108;DHT22;10712;52.944;9.098;2022-08-01T15:37:13;20.60;65.60
21108;DHT22;10712;52.944;9.098;2022-08-01T15:39:40;20.60;64.60
21108;DHT22;10712;52.944;9.098;2022-08-01T15:42:09;20.60;64.40
21108;DHT22;10712;52.944;9.098;2022-08-01T15:44:37;20.60;63.40
21108;DHT22;10712;52.944;9.098;2022-08-01T15:47:03;20.50;64.10
21108;DHT22;10712;52.944;9.098;2022-08-01T15:49:30;20.40;64.20
21108;DHT22;10712;52.944;9.098;2022-08-01T15:51:58;20.40;63.90
21108;DHT22;10712;52.944;9.098;2022-08-01T15:54:24;20.40;64.40
21108;DHT22;10712;52.944;9.098;2022-08-01T15:56:50;20.40;64.60
21108;DHT22;10712;52.944;9.098;2022-08-01T15:59:16;20.40;64.90
21108;DHT22;10712;52.944;9.098;2022-08-01T16:01:43;20.40;65.40
21108;DHT22;10712;52.944;9.098;2022-08-01T16:04:08;20.40;65.30
21108;DHT22;10712;52.944;9.098;2022-08-01T16:06:35;20.40;64.90
21108;DHT22;10712;52.944;9.098;2022-08-01T16:09:05;20.40;64.60
21108;DHT22;10712;52.944;9.098;2022-08-01T16:11:31;20.40;64.70
21108;DHT22;10712;52.944;9.098;2022-08-01T16:13:57;20.30;63.70
21108;DHT22;10712;52.944;9.098;2022-08-01T16:16:23;20.20;64.20
21108;DHT22;10712;52.944;9.098;2022-08-01T16:18:49;20.20;64.30
21108;DHT22;10712;52.944;9.098;2022-08-01T16:21:15;20.20;64.30
21108;DHT22;10712;52.944;9.098;2022-08-01T16:23:42;20.30;64.10
21108;DHT22;10712;52.944;9.098;2022-08-01T16:26:09;20.30;63.70
21108;DHT22;10712;52.944;9.098;2022-08-01T16:28:36;20.20;64.00
21108;DHT22;10712;52.944;9.098;2022-08-01T16:31:03;20.30;64.30
21108;DHT22;10712;52.944;9.098;2022-08-01T16:33:30;20.30;64.40
21108;DHT22;10712;52.944;9.098;2022-08-01T16:35:57;20.30;64.30
21108;DHT22;10712;52.944;9.098;2022-08-01T16:38:23;20.20;64.10
21108;DHT22;10712;52.944;9.098;2022-08-01T16:40:50;20.20;63.80